Terminal Aerodrome Forecast
Issued by NWS

Home | Current Version | Previous Version | Text Only | Print | Product List | Glossary On
Versions: 1 2 3 4 5 6 7 8 9 10 11 12 13 14 15
000
FTUS45 KABQ 301914 AAA
TAFLVS
TAF AMD
KLVS 301914Z 3019/3118 20015G25KT P6SM SCT060
     FM302000 20015G25KT P6SM VCSH BKN070
      TEMPO 3020/3024 VRB20G35KT 5SM -TSRA OVC035CB
     FM310300 16008KT P6SM BKN070
     FM310700 21007KT P6SM BKN100=

USA.gov is the U.S. government's official web portal to all federal, state and local government web resources and services.